sensor_id;sensor_type;location;lat;lon;timestamp;P1;durP1;ratioP1;P2;durP2;ratioP2
70733;SDS011;58320;48.804;9.252;2022-07-23T00:01:24;6.05;;;4.70;;
70733;SDS011;58320;48.804;9.252;2022-07-23T00:03:50;7.97;;;5.10;;
70733;SDS011;58320;48.804;9.252;2022-07-23T00:06:19;6.68;;;4.88;;
70733;SDS011;58320;48.804;9.252;2022-07-23T00:08:45;6.15;;;4.95;;
70733;SDS011;58320;48.804;9.252;2022-07-23T00:11:11;7.82;;;5.18;;
70733;SDS011;58320;48.804;9.252;2022-07-23T00:13:37;8.00;;;5.20;;
70733;SDS011;58320;48.804;9.252;2022-07-23T00:16:03;6.75;;;5.30;;
70733;SDS011;58320;48.804;9.252;2022-07-23T00:18:30;7.15;;;4.70;;
70733;SDS011;58320;48.804;9.252;2022-07-23T00:20:55;6.85;;;4.60;;
70733;SDS011;58320;48.804;9.252;2022-07-23T00:23:21;6.03;;;4.47;;
70733;SDS011;58320;48.804;9.252;2022-07-23T00:25:47;6.47;;;4.60;;
70733;SDS011;58320;48.804;9.252;2022-07-23T00:28:13;6.20;;;4.45;;
70733;SDS011;58320;48.804;9.252;2022-07-23T00:30:39;6.47;;;4.20;;
70733;SDS011;58320;48.804;9.252;2022-07-23T00:33:05;6.35;;;4.35;;
70733;SDS011;58320;48.804;9.252;2022-07-23T00:35:33;8.10;;;4.35;;
70733;SDS011;58320;48.804;9.252;2022-07-23T00:38:06;6.00;;;4.20;;
70733;SDS011;58320;48.804;9.252;2022-07-23T00:40:37;5.00;;;3.87;;
70733;SDS011;58320;48.804;9.252;2022-07-23T00:43:04;7.37;;;4.00;;
70733;SDS011;58320;48.804;9.252;2022-07-23T00:45:30;5.53;;;4.10;;
70733;SDS011;58320;48.804;9.252;2022-07-23T00:47:56;6.05;;;3.90;;
70733;SDS011;58320;48.804;9.252;2022-07-23T00:50:22;5.55;;;4.13;;
70733;SDS011;58320;48.804;9.252;2022-07-23T00:52:48;6.07;;;4.03;;
70733;SDS011;58320;48.804;9.252;2022-07-23T00:55:14;6.10;;;4.40;;
70733;SDS011;58320;48.804;9.252;2022-07-23T00:57:40;6.22;;;4.03;;
70733;SDS011;58320;48.804;9.252;2022-07-23T01:00:08;5.80;;;4.00;;
70733;SDS011;58320;48.804;9.252;2022-07-23T01:02:37;6.87;;;4.30;;
70733;SDS011;58320;48.804;9.252;2022-07-23T01:05:04;6.13;;;4.10;;
70733;SDS011;58320;48.804;9.252;2022-07-23T01:07:30;5.93;;;4.50;;
70733;SDS011;58320;48.804;9.252;2022-07-23T01:09:56;7.45;;;4.35;;
70733;SDS011;58320;48.804;9.252;2022-07-23T01:12:22;6.47;;;3.95;;
70733;SDS011;58320;48.804;9.252;2022-07-23T01:14:55;6.73;;;3.80;;
70733;SDS011;58320;48.804;9.252;2022-07-23T01:17:25;5.55;;;4.07;;
70733;SDS011;58320;48.804;9.252;2022-07-23T01:19:51;7.63;;;4.43;;
70733;SDS011;58320;48.804;9.252;2022-07-23T01:22:18;5.88;;;3.67;;
70733;SDS011;58320;48.804;9.252;2022-07-23T01:24:45;5.47;;;3.95;;
70733;SDS011;58320;48.804;9.252;2022-07-23T01:27:12;5.88;;;4.03;;
70733;SDS011;58320;48.804;9.252;2022-07-23T01:29:38;7.83;;;4.40;;
70733;SDS011;58320;48.804;9.252;2022-07-23T01:32:04;7.18;;;4.25;;
70733;SDS011;58320;48.804;9.252;2022-07-23T01:34:31;5.93;;;4.15;;
70733;SDS011;58320;48.804;9.252;2022-07-23T01:36:57;6.05;;;4.13;;
70733;SDS011;58320;48.804;9.252;2022-07-23T01:39:23;7.15;;;4.30;;
70733;SDS011;58320;48.804;9.252;2022-07-23T01:41:49;5.47;;;4.00;;
70733;SDS011;58320;48.804;9.252;2022-07-23T01:44:15;6.00;;;4.03;;
70733;SDS011;58320;48.804;9.252;2022-07-23T01:46:40;6.53;;;4.10;;
70733;SDS011;58320;48.804;9.252;2022-07-23T01:49:06;5.50;;;3.90;;
70733;SDS011;58320;48.804;9.252;2022-07-23T01:51:32;6.70;;;4.10;;
70733;SDS011;58320;48.804;9.252;2022-07-23T01:53:58;7.45;;;4.28;;
70733;SDS011;58320;48.804;9.252;2022-07-23T01:56:24;6.07;;;4.00;;
70733;SDS011;58320;48.804;9.252;2022-07-23T01:58:49;7.50;;;4.50;;
70733;SDS011;58320;48.804;9.252;2022-07-23T02:01:15;6.00;;;4.00;;
70733;SDS011;58320;48.804;9.252;2022-07-23T02:03:41;5.80;;;4.27;;
70733;SDS011;58320;48.804;9.252;2022-07-23T02:06:07;5.68;;;4.10;;
70733;SDS011;58320;48.804;9.252;2022-07-23T02:08:33;5.85;;;4.13;;
70733;SDS011;58320;48.804;9.252;2022-07-23T02:10:59;5.80;;;4.23;;
70733;SDS011;58320;48.804;9.252;2022-07-23T02:13:24;4.95;;;3.60;;
70733;SDS011;58320;48.804;9.252;2022-07-23T02:15:50;5.47;;;3.88;;
70733;SDS011;58320;48.804;9.252;2022-07-23T02:18:16;6.53;;;4.10;;
70733;SDS011;58320;48.804;9.252;2022-07-23T02:20:42;6.07;;;3.85;;
70733;SDS011;58320;48.804;9.252;2022-07-23T02:23:09;6.97;;;4.03;;
70733;SDS011;58320;48.804;9.252;2022-07-23T02:25:35;7.50;;;4.28;;
70733;SDS011;58320;48.804;9.252;2022-07-23T02:28:01;7.13;;;4.37;;
70733;SDS011;58320;48.804;9.252;2022-07-23T02:30:28;5.55;;;4.20;;
70733;SDS011;58320;48.804;9.252;2022-07-23T02:32:54;6.72;;;4.60;;
70733;SDS011;58320;48.804;9.252;2022-07-23T02:35:21;5.68;;;4.05;;
70733;SDS011;58320;48.804;9.252;2022-07-23T02:37:47;5.85;;;3.70;;
70733;SDS011;58320;48.804;9.252;2022-07-23T02:40:13;6.77;;;3.77;;
70733;SDS011;58320;48.804;9.252;2022-07-23T02:42:38;5.80;;;3.60;;
70733;SDS011;58320;48.804;9.252;2022-07-23T02:45:04;5.40;;;3.58;;
70733;SDS011;58320;48.804;9.252;2022-07-23T02:47:31;6.63;;;3.95;;
70733;SDS011;58320;48.804;9.252;2022-07-23T02:49:57;6.07;;;4.18;;
70733;SDS011;58320;48.804;9.252;2022-07-23T02:52:23;6.97;;;4.20;;
70733;SDS011;58320;48.804;9.252;2022-07-23T02:54:48;5.90;;;4.00;;
70733;SDS011;58320;48.804;9.252;2022-07-23T02:57:14;6.88;;;4.30;;
70733;SDS011;58320;48.804;9.252;2022-07-23T02:59:40;7.13;;;4.20;;
70733;SDS011;58320;48.804;9.252;2022-07-23T03:02:06;7.07;;;4.50;;
70733;SDS011;58320;48.804;9.252;2022-07-23T03:04:32;6.38;;;4.60;;
70733;SDS011;58320;48.804;9.252;2022-07-23T03:06:58;5.82;;;4.20;;
70733;SDS011;58320;48.804;9.252;2022-07-23T03:09:24;6.33;;;4.03;;
70733;SDS011;58320;48.804;9.252;2022-07-23T03:11:49;6.20;;;4.20;;
70733;SDS011;58320;48.804;9.252;2022-07-23T03:14:15;8.73;;;4.33;;
70733;SDS011;58320;48.804;9.252;2022-07-23T03:16:41;6.40;;;4.13;;
70733;SDS011;58320;48.804;9.252;2022-07-23T03:19:07;6.35;;;4.20;;
70733;SDS011;58320;48.804;9.252;2022-07-23T03:21:33;6.53;;;4.38;;
70733;SDS011;58320;48.804;9.252;2022-07-23T03:23:59;6.80;;;4.45;;
70733;SDS011;58320;48.804;9.252;2022-07-23T03:26:26;6.23;;;4.40;;
70733;SDS011;58320;48.804;9.252;2022-07-23T03:28:51;5.78;;;4.15;;
70733;SDS011;58320;48.804;9.252;2022-07-23T03:31:17;6.75;;;4.15;;
70733;SDS011;58320;48.804;9.252;2022-07-23T03:33:43;6.55;;;4.45;;
70733;SDS011;58320;48.804;9.252;2022-07-23T03:36:09;7.73;;;4.33;;
70733;SDS011;58320;48.804;9.252;2022-07-23T03:38:35;6.45;;;4.38;;
70733;SDS011;58320;48.804;9.252;2022-07-23T03:41:01;5.80;;;4.30;;
70733;SDS011;58320;48.804;9.252;2022-07-23T03:43:26;6.35;;;4.28;;
70733;SDS011;58320;48.804;9.252;2022-07-23T03:45:52;5.90;;;3.90;;
70733;SDS011;58320;48.804;9.252;2022-07-23T03:48:18;5.78;;;3.95;;
70733;SDS011;58320;48.804;9.252;2022-07-23T03:50:44;6.10;;;4.37;;
70733;SDS011;58320;48.804;9.252;2022-07-23T03:53:10;6.80;;;4.63;;
70733;SDS011;58320;48.804;9.252;2022-07-23T03:55:36;8.50;;;4.67;;
70733;SDS011;58320;48.804;9.252;2022-07-23T03:58:01;6.32;;;4.60;;
70733;SDS011;58320;48.804;9.252;2022-07-23T04:00:27;6.53;;;4.28;;
70733;SDS011;58320;48.804;9.252;2022-07-23T04:02:53;6.50;;;4.67;;
70733;SDS011;58320;48.804;9.252;2022-07-23T04:05:19;6.30;;;4.40;;
70733;SDS011;58320;48.804;9.252;2022-07-23T04:07:45;8.05;;;4.20;;
70733;SDS011;58320;48.804;9.252;2022-07-23T04:10:11;5.60;;;3.80;;
70733;SDS011;58320;48.804;9.252;2022-07-23T04:12:36;6.65;;;4.63;;
70733;SDS011;58320;48.804;9.252;2022-07-23T04:15:02;6.82;;;4.70;;
70733;SDS011;58320;48.804;9.252;2022-07-23T04:17:29;7.80;;;4.82;;
70733;SDS011;58320;48.804;9.252;2022-07-23T04:19:55;6.50;;;4.97;;
70733;SDS011;58320;48.804;9.252;2022-07-23T04:22:20;6.97;;;4.80;;
70733;SDS011;58320;48.804;9.252;2022-07-23T04:24:46;7.30;;;4.77;;
70733;SDS011;58320;48.804;9.252;2022-07-23T04:27:15;7.20;;;4.70;;
70733;SDS011;58320;48.804;9.252;2022-07-23T04:29:41;7.22;;;5.00;;
70733;SDS011;58320;48.804;9.252;2022-07-23T04:32:07;7.68;;;4.88;;
70733;SDS011;58320;48.804;9.252;2022-07-23T04:34:33;7.18;;;4.65;;
70733;SDS011;58320;48.804;9.252;2022-07-23T04:36:58;7.87;;;5.20;;
70733;SDS011;58320;48.804;9.252;2022-07-23T04:39:24;7.13;;;4.95;;
70733;SDS011;58320;48.804;9.252;2022-07-23T04:41:50;7.43;;;4.93;;
70733;SDS011;58320;48.804;9.252;2022-07-23T04:44:16;8.57;;;4.53;;
70733;SDS011;58320;48.804;9.252;2022-07-23T04:46:42;7.40;;;4.90;;
70733;SDS011;58320;48.804;9.252;2022-07-23T04:49:07;7.38;;;5.00;;
70733;SDS011;58320;48.804;9.252;2022-07-23T04:51:33;6.53;;;4.87;;
70733;SDS011;58320;48.804;9.252;2022-07-23T04:53:59;8.32;;;5.05;;
70733;SDS011;58320;48.804;9.252;2022-07-23T04:56:25;7.53;;;4.75;;
70733;SDS011;58320;48.804;9.252;2022-07-23T04:58:51;6.70;;;4.47;;
70733;SDS011;58320;48.804;9.252;2022-07-23T05:01:16;6.70;;;4.90;;
70733;SDS011;58320;48.804;9.252;2022-07-23T05:03:42;6.30;;;4.70;;
70733;SDS011;58320;48.804;9.252;2022-07-23T05:06:08;8.37;;;4.73;;
70733;SDS011;58320;48.804;9.252;2022-07-23T05:08:34;6.90;;;4.72;;
70733;SDS011;58320;48.804;9.252;2022-07-23T05:11:00;7.13;;;4.68;;
70733;SDS011;58320;48.804;9.252;2022-07-23T05:13:26;6.40;;;4.60;;
70733;SDS011;58320;48.804;9.252;2022-07-23T05:15:52;7.27;;;4.93;;
70733;SDS011;58320;48.804;9.252;2022-07-23T05:18:17;6.90;;;5.00;;
70733;SDS011;58320;48.804;9.252;2022-07-23T05:20:43;8.00;;;4.85;;
70733;SDS011;58320;48.804;9.252;2022-07-23T05:23:09;10.10;;;5.27;;
70733;SDS011;58320;48.804;9.252;2022-07-23T05:25:35;7.40;;;5.47;;
70733;SDS011;58320;48.804;9.252;2022-07-23T05:28:01;7.65;;;5.47;;
70733;SDS011;58320;48.804;9.252;2022-07-23T05:30:27;8.07;;;5.63;;
70733;SDS011;58320;48.804;9.252;2022-07-23T05:32:53;7.63;;;5.20;;
70733;SDS011;58320;48.804;9.252;2022-07-23T05:35:19;8.35;;;5.07;;
70733;SDS011;58320;48.804;9.252;2022-07-23T05:37:44;8.70;;;5.25;;
70733;SDS011;58320;48.804;9.252;2022-07-23T05:40:10;9.30;;;5.17;;
70733;SDS011;58320;48.804;9.252;2022-07-23T05:42:37;11.57;;;5.30;;
70733;SDS011;58320;48.804;9.252;2022-07-23T05:45:05;7.47;;;5.25;;
70733;SDS011;58320;48.804;9.252;2022-07-23T05:47:39;8.75;;;5.60;;
70733;SDS011;58320;48.804;9.252;2022-07-23T05:50:11;12.27;;;5.07;;
70733;SDS011;58320;48.804;9.252;2022-07-23T05:52:38;10.15;;;5.35;;
70733;SDS011;58320;48.804;9.252;2022-07-23T05:55:05;9.27;;;6.03;;
70733;SDS011;58320;48.804;9.252;2022-07-23T05:57:32;6.60;;;4.73;;
70733;SDS011;58320;48.804;9.252;2022-07-23T05:59:58;8.90;;;5.70;;
70733;SDS011;58320;48.804;9.252;2022-07-23T06:02:24;5.95;;;4.68;;
70733;SDS011;58320;48.804;9.252;2022-07-23T06:04:49;10.00;;;5.00;;
70733;SDS011;58320;48.804;9.252;2022-07-23T06:07:15;7.50;;;4.90;;
70733;SDS011;58320;48.804;9.252;2022-07-23T06:09:41;7.80;;;4.78;;
70733;SDS011;58320;48.804;9.252;2022-07-23T06:12:07;6.13;;;4.40;;
70733;SDS011;58320;48.804;9.252;2022-07-23T06:14:33;6.67;;;4.87;;
70733;SDS011;58320;48.804;9.252;2022-07-23T06:16:59;7.57;;;5.60;;
70733;SDS011;58320;48.804;9.252;2022-07-23T06:19:25;5.75;;;4.68;;
70733;SDS011;58320;48.804;9.252;2022-07-23T06:21:51;7.57;;;5.10;;
70733;SDS011;58320;48.804;9.252;2022-07-23T06:24:16;5.93;;;4.10;;
70733;SDS011;58320;48.804;9.252;2022-07-23T06:26:42;8.77;;;5.40;;
70733;SDS011;58320;48.804;9.252;2022-07-23T06:29:08;7.85;;;5.03;;
70733;SDS011;58320;48.804;9.252;2022-07-23T06:31:34;6.67;;;5.00;;
70733;SDS011;58320;48.804;9.252;2022-07-23T06:34:00;6.28;;;4.95;;
70733;SDS011;58320;48.804;9.252;2022-07-23T06:36:27;7.00;;;5.40;;
70733;SDS011;58320;48.804;9.252;2022-07-23T06:38:53;8.57;;;5.68;;
70733;SDS011;58320;48.804;9.252;2022-07-23T06:41:19;7.37;;;5.73;;
70733;SDS011;58320;48.804;9.252;2022-07-23T06:43:44;6.93;;;5.13;;
70733;SDS011;58320;48.804;9.252;2022-07-23T06:46:10;7.20;;;5.13;;
70733;SDS011;58320;48.804;9.252;2022-07-23T06:48:36;7.10;;;5.77;;
70733;SDS011;58320;48.804;9.252;2022-07-23T06:51:02;6.40;;;4.65;;
70733;SDS011;58320;48.804;9.252;2022-07-23T06:53:28;6.38;;;4.80;;
70733;SDS011;58320;48.804;9.252;2022-07-23T06:55:54;7.13;;;4.90;;
70733;SDS011;58320;48.804;9.252;2022-07-23T06:58:20;7.68;;;5.72;;
70733;SDS011;58320;48.804;9.252;2022-07-23T07:00:46;7.30;;;5.50;;
70733;SDS011;58320;48.804;9.252;2022-07-23T07:03:12;7.32;;;5.32;;
70733;SDS011;58320;48.804;9.252;2022-07-23T07:05:38;7.70;;;5.55;;
70733;SDS011;58320;48.804;9.252;2022-07-23T07:08:06;7.70;;;5.33;;
70733;SDS011;58320;48.804;9.252;2022-07-23T07:10:32;9.83;;;5.73;;
70733;SDS011;58320;48.804;9.252;2022-07-23T07:12:58;7.22;;;5.38;;
70733;SDS011;58320;48.804;9.252;2022-07-23T07:15:24;9.43;;;5.47;;
70733;SDS011;58320;48.804;9.252;2022-07-23T07:17:50;8.10;;;5.53;;
70733;SDS011;58320;48.804;9.252;2022-07-23T07:20:15;9.93;;;5.72;;
70733;SDS011;58320;48.804;9.252;2022-07-23T07:22:41;11.55;;;5.72;;
70733;SDS011;58320;48.804;9.252;2022-07-23T07:25:07;7.10;;;5.60;;
70733;SDS011;58320;48.804;9.252;2022-07-23T07:27:34;10.80;;;5.88;;
70733;SDS011;58320;48.804;9.252;2022-07-23T07:29:59;7.57;;;5.68;;
70733;SDS011;58320;48.804;9.252;2022-07-23T07:32:26;6.82;;;5.32;;
70733;SDS011;58320;48.804;9.252;2022-07-23T07:34:52;9.10;;;6.00;;
70733;SDS011;58320;48.804;9.252;2022-07-23T07:37:17;8.27;;;5.53;;
70733;SDS011;58320;48.804;9.252;2022-07-23T07:39:49;7.60;;;5.40;;
70733;SDS011;58320;48.804;9.252;2022-07-23T07:42:15;7.55;;;5.28;;
70733;SDS011;58320;48.804;9.252;2022-07-23T07:44:41;9.32;;;5.75;;
70733;SDS011;58320;48.804;9.252;2022-07-23T07:47:07;7.33;;;5.20;;
70733;SDS011;58320;48.804;9.252;2022-07-23T07:49:33;7.03;;;5.30;;
70733;SDS011;58320;48.804;9.252;2022-07-23T07:51:58;8.63;;;5.72;;
70733;SDS011;58320;48.804;9.252;2022-07-23T07:54:24;8.23;;;5.17;;
70733;SDS011;58320;48.804;9.252;2022-07-23T07:56:50;8.27;;;5.63;;
70733;SDS011;58320;48.804;9.252;2022-07-23T07:59:16;8.00;;;5.85;;
70733;SDS011;58320;48.804;9.252;2022-07-23T08:01:42;8.37;;;6.20;;
70733;SDS011;58320;48.804;9.252;2022-07-23T08:04:07;12.75;;;5.80;;
70733;SDS011;58320;48.804;9.252;2022-07-23T08:06:33;8.73;;;5.57;;
70733;SDS011;58320;48.804;9.252;2022-07-23T08:08:59;7.75;;;5.50;;
70733;SDS011;58320;48.804;9.252;2022-07-23T08:11:25;8.13;;;5.70;;
70733;SDS011;58320;48.804;9.252;2022-07-23T08:13:51;7.97;;;5.70;;
70733;SDS011;58320;48.804;9.252;2022-07-23T08:16:16;8.52;;;5.53;;
70733;SDS011;58320;48.804;9.252;2022-07-23T08:18:42;7.68;;;5.28;;
70733;SDS011;58320;48.804;9.252;2022-07-23T08:21:08;9.07;;;5.80;;
70733;SDS011;58320;48.804;9.252;2022-07-23T08:23:34;7.22;;;4.90;;
70733;SDS011;58320;48.804;9.252;2022-07-23T08:26:00;7.80;;;4.85;;
70733;SDS011;58320;48.804;9.252;2022-07-23T08:28:26;8.23;;;5.65;;
70733;SDS011;58320;48.804;9.252;2022-07-23T08:30:52;6.65;;;5.30;;
70733;SDS011;58320;48.804;9.252;2022-07-23T08:33:18;8.70;;;5.55;;
70733;SDS011;58320;48.804;9.252;2022-07-23T08:35:45;9.43;;;5.27;;
70733;SDS011;58320;48.804;9.252;2022-07-23T08:38:16;7.28;;;5.05;;
70733;SDS011;58320;48.804;9.252;2022-07-23T08:40:46;7.53;;;5.40;;
70733;SDS011;58320;48.804;9.252;2022-07-23T08:43:16;6.63;;;4.47;;
70733;SDS011;58320;48.804;9.252;2022-07-23T08:45:48;7.35;;;5.00;;
70733;SDS011;58320;48.804;9.252;2022-07-23T08:48:21;5.97;;;4.53;;
70733;SDS011;58320;48.804;9.252;2022-07-23T08:50:53;6.72;;;4.68;;
70733;SDS011;58320;48.804;9.252;2022-07-23T08:53:21;6.30;;;5.18;;
70733;SDS011;58320;48.804;9.252;2022-07-23T08:55:51;7.23;;;4.97;;
70733;SDS011;58320;48.804;9.252;2022-07-23T08:58:21;7.60;;;4.80;;
70733;SDS011;58320;48.804;9.252;2022-07-23T09:00:47;8.30;;;4.80;;
70733;SDS011;58320;48.804;9.252;2022-07-23T09:03:18;6.18;;;4.85;;
70733;SDS011;58320;48.804;9.252;2022-07-23T09:05:54;7.35;;;5.05;;
70733;SDS011;58320;48.804;9.252;2022-07-23T09:08:22;8.15;;;5.30;;
70733;SDS011;58320;48.804;9.252;2022-07-23T09:11:00;6.63;;;4.60;;
70733;SDS011;58320;48.804;9.252;2022-07-23T09:13:32;7.43;;;5.00;;
70733;SDS011;58320;48.804;9.252;2022-07-23T09:18:48;6.32;;;4.95;;
70733;SDS011;58320;48.804;9.252;2022-07-23T09:24:04;7.10;;;4.90;;
70733;SDS011;58320;48.804;9.252;2022-07-23T09:26:42;5.88;;;4.45;;
70733;SDS011;58320;48.804;9.252;2022-07-23T09:29:15;6.18;;;5.00;;
70733;SDS011;58320;48.804;9.252;2022-07-23T09:37:13;6.55;;;4.88;;
70733;SDS011;58320;48.804;9.252;2022-07-23T09:39:42;6.40;;;4.97;;
70733;SDS011;58320;48.804;9.252;2022-07-23T09:42:20;7.50;;;4.75;;
70733;SDS011;58320;48.804;9.252;2022-07-23T09:44:55;6.47;;;4.97;;
70733;SDS011;58320;48.804;9.252;2022-07-23T09:47:23;6.23;;;5.10;;
70733;SDS011;58320;48.804;9.252;2022-07-23T09:50:02;5.97;;;4.70;;
70733;SDS011;58320;48.804;9.252;2022-07-23T09:52:42;6.30;;;4.88;;
70733;SDS011;58320;48.804;9.252;2022-07-23T09:55:12;6.03;;;4.78;;
70733;SDS011;58320;48.804;9.252;2022-07-23T09:57:38;7.32;;;4.53;;
70733;SDS011;58320;48.804;9.252;2022-07-23T10:00:06;6.72;;;4.18;;
70733;SDS011;58320;48.804;9.252;2022-07-23T10:02:35;7.35;;;5.15;;
70733;SDS011;58320;48.804;9.252;2022-07-23T10:05:02;6.80;;;5.20;;
70733;SDS011;58320;48.804;9.252;2022-07-23T10:07:32;5.75;;;4.43;;
70733;SDS011;58320;48.804;9.252;2022-07-23T10:10:03;6.53;;;4.23;;
70733;SDS011;58320;48.804;9.252;2022-07-23T10:12:31;5.40;;;4.30;;
70733;SDS011;58320;48.804;9.252;2022-07-23T10:15:04;5.97;;;4.72;;
70733;SDS011;58320;48.804;9.252;2022-07-23T10:17:32;7.20;;;5.05;;
70733;SDS011;58320;48.804;9.252;2022-07-23T10:20:00;7.97;;;4.90;;
70733;SDS011;58320;48.804;9.252;2022-07-23T10:22:30;7.10;;;4.68;;
70733;SDS011;58320;48.804;9.252;2022-07-23T10:28:04;6.30;;;4.70;;
70733;SDS011;58320;48.804;9.252;2022-07-23T10:31:17;6.93;;;4.85;;
70733;SDS011;58320;48.804;9.252;2022-07-23T10:34:21;6.60;;;4.80;;
70733;SDS011;58320;48.804;9.252;2022-07-23T10:37:16;6.63;;;4.53;;
70733;SDS011;58320;48.804;9.252;2022-07-23T10:42:42;7.03;;;5.00;;
70733;SDS011;58320;48.804;9.252;2022-07-23T10:45:32;6.13;;;4.97;;
70733;SDS011;58320;48.804;9.252;2022-07-23T10:53:53;6.30;;;5.07;;
70733;SDS011;58320;48.804;9.252;2022-07-23T10:59:29;6.30;;;4.68;;
70733;SDS011;58320;48.804;9.252;2022-07-23T11:02:17;7.90;;;5.40;;
70733;SDS011;58320;48.804;9.252;2022-07-23T11:04:51;6.25;;;5.30;;
70733;SDS011;58320;48.804;9.252;2022-07-23T11:07:18;9.52;;;5.10;;
70733;SDS011;58320;48.804;9.252;2022-07-23T11:09:45;6.05;;;4.85;;
70733;SDS011;58320;48.804;9.252;2022-07-23T11:17:30;6.82;;;5.50;;
70733;SDS011;58320;48.804;9.252;2022-07-23T11:25:07;7.77;;;5.50;;
70733;SDS011;58320;48.804;9.252;2022-07-23T11:27:46;6.07;;;5.22;;
70733;SDS011;58320;48.804;9.252;2022-07-23T11:32:51;6.32;;;4.78;;
70733;SDS011;58320;48.804;9.252;2022-07-23T11:35:22;6.72;;;5.43;;
70733;SDS011;58320;48.804;9.252;2022-07-23T11:37:54;6.72;;;5.05;;
70733;SDS011;58320;48.804;9.252;2022-07-23T11:40:29;7.05;;;5.07;;
70733;SDS011;58320;48.804;9.252;2022-07-23T11:45:40;7.00;;;5.10;;
70733;SDS011;58320;48.804;9.252;2022-07-23T11:48:14;6.70;;;5.00;;
70733;SDS011;58320;48.804;9.252;2022-07-23T11:50:50;5.88;;;4.38;;
70733;SDS011;58320;48.804;9.252;2022-07-23T11:55:54;5.45;;;4.35;;
70733;SDS011;58320;48.804;9.252;2022-07-23T11:58:29;5.57;;;4.28;;
70733;SDS011;58320;48.804;9.252;2022-07-23T12:00:55;6.45;;;4.95;;
70733;SDS011;58320;48.804;9.252;2022-07-23T12:03:20;7.03;;;4.53;;
70733;SDS011;58320;48.804;9.252;2022-07-23T12:05:47;5.93;;;4.50;;
70733;SDS011;58320;48.804;9.252;2022-07-23T12:08:13;5.75;;;4.78;;
70733;SDS011;58320;48.804;9.252;2022-07-23T12:13:18;6.72;;;5.00;;
70733;SDS011;58320;48.804;9.252;2022-07-23T12:15:48;6.43;;;5.00;;
70733;SDS011;58320;48.804;9.252;2022-07-23T12:18:21;6.33;;;4.73;;
70733;SDS011;58320;48.804;9.252;2022-07-23T12:20:51;6.75;;;5.20;;
70733;SDS011;58320;48.804;9.252;2022-07-23T12:23:19;6.88;;;5.22;;
70733;SDS011;58320;48.804;9.252;2022-07-23T12:25:48;6.43;;;4.75;;
70733;SDS011;58320;48.804;9.252;2022-07-23T12:28:19;6.93;;;5.45;;
70733;SDS011;58320;48.804;9.252;2022-07-23T12:35:54;6.78;;;5.35;;
70733;SDS011;58320;48.804;9.252;2022-07-23T12:38:24;6.72;;;4.90;;
70733;SDS011;58320;48.804;9.252;2022-07-23T12:40:54;6.77;;;4.70;;
70733;SDS011;58320;48.804;9.252;2022-07-23T12:43:29;5.77;;;5.17;;
70733;SDS011;58320;48.804;9.252;2022-07-23T12:46:05;6.60;;;5.35;;
70733;SDS011;58320;48.804;9.252;2022-07-23T12:51:29;5.82;;;5.22;;
70733;SDS011;58320;48.804;9.252;2022-07-23T12:54:07;6.10;;;5.25;;
70733;SDS011;58320;48.804;9.252;2022-07-23T12:56:38;5.88;;;5.25;;
70733;SDS011;58320;48.804;9.252;2022-07-23T12:59:07;8.63;;;5.30;;
70733;SDS011;58320;48.804;9.252;2022-07-23T13:01:36;7.47;;;5.68;;
70733;SDS011;58320;48.804;9.252;2022-07-23T13:04:09;7.68;;;5.38;;
70733;SDS011;58320;48.804;9.252;2022-07-23T13:06:45;7.47;;;5.80;;
70733;SDS011;58320;48.804;9.252;2022-07-23T13:09:19;7.90;;;5.67;;
70733;SDS011;58320;48.804;9.252;2022-07-23T13:11:50;6.25;;;5.10;;
70733;SDS011;58320;48.804;9.252;2022-07-23T13:14:18;7.20;;;5.93;;
70733;SDS011;58320;48.804;9.252;2022-07-23T13:16:46;6.60;;;5.85;;
70733;SDS011;58320;48.804;9.252;2022-07-23T13:19:14;6.72;;;6.00;;
70733;SDS011;58320;48.804;9.252;2022-07-23T13:21:40;6.78;;;5.60;;
70733;SDS011;58320;48.804;9.252;2022-07-23T13:24:07;26.58;;;6.35;;
70733;SDS011;58320;48.804;9.252;2022-07-23T13:26:35;7.32;;;5.97;;
70733;SDS011;58320;48.804;9.252;2022-07-23T13:29:02;7.57;;;6.05;;
70733;SDS011;58320;48.804;9.252;2022-07-23T13:31:29;7.63;;;6.07;;
70733;SDS011;58320;48.804;9.252;2022-07-23T13:33:54;6.97;;;6.17;;
70733;SDS011;58320;48.804;9.252;2022-07-23T13:36:20;6.45;;;5.50;;
70733;SDS011;58320;48.804;9.252;2022-07-23T13:38:46;7.03;;;5.23;;
70733;SDS011;58320;48.804;9.252;2022-07-23T13:41:12;6.25;;;5.30;;
70733;SDS011;58320;48.804;9.252;2022-07-23T13:43:38;6.95;;;5.50;;
70733;SDS011;58320;48.804;9.252;2022-07-23T13:46:04;7.97;;;5.90;;
70733;SDS011;58320;48.804;9.252;2022-07-23T13:48:30;7.28;;;5.90;;
70733;SDS011;58320;48.804;9.252;2022-07-23T13:50:56;8.03;;;6.00;;
70733;SDS011;58320;48.804;9.252;2022-07-23T13:53:22;7.15;;;5.95;;
70733;SDS011;58320;48.804;9.252;2022-07-23T13:55:50;7.65;;;5.95;;
70733;SDS011;58320;48.804;9.252;2022-07-23T13:58:17;7.65;;;6.43;;
70733;SDS011;58320;48.804;9.252;2022-07-23T14:00:45;6.63;;;5.85;;
70733;SDS011;58320;48.804;9.252;2022-07-23T14:03:15;8.55;;;6.05;;
70733;SDS011;58320;48.804;9.252;2022-07-23T14:05:42;7.77;;;6.73;;
70733;SDS011;58320;48.804;9.252;2022-07-23T14:08:08;7.07;;;6.23;;
70733;SDS011;58320;48.804;9.252;2022-07-23T14:10:34;6.93;;;6.22;;
70733;SDS011;58320;48.804;9.252;2022-07-23T14:13:00;7.82;;;6.55;;
70733;SDS011;58320;48.804;9.252;2022-07-23T14:15:27;8.60;;;7.20;;
70733;SDS011;58320;48.804;9.252;2022-07-23T14:17:55;8.20;;;6.50;;
70733;SDS011;58320;48.804;9.252;2022-07-23T14:20:22;7.03;;;6.25;;
70733;SDS011;58320;48.804;9.252;2022-07-23T14:22:48;6.57;;;5.80;;
70733;SDS011;58320;48.804;9.252;2022-07-23T14:25:15;7.30;;;6.37;;
70733;SDS011;58320;48.804;9.252;2022-07-23T14:27:41;7.50;;;6.03;;
70733;SDS011;58320;48.804;9.252;2022-07-23T14:30:08;9.15;;;6.82;;
70733;SDS011;58320;48.804;9.252;2022-07-23T14:32:35;9.65;;;6.45;;
70733;SDS011;58320;48.804;9.252;2022-07-23T14:35:01;7.15;;;6.22;;
70733;SDS011;58320;48.804;9.252;2022-07-23T14:37:28;7.07;;;6.32;;
70733;SDS011;58320;48.804;9.252;2022-07-23T14:39:54;7.05;;;6.35;;
70733;SDS011;58320;48.804;9.252;2022-07-23T14:42:20;7.03;;;6.10;;
70733;SDS011;58320;48.804;9.252;2022-07-23T14:44:46;8.53;;;6.40;;
70733;SDS011;58320;48.804;9.252;2022-07-23T14:47:12;7.72;;;6.05;;
70733;SDS011;58320;48.804;9.252;2022-07-23T14:49:37;6.83;;;6.10;;
70733;SDS011;58320;48.804;9.252;2022-07-23T14:52:04;7.27;;;5.90;;
70733;SDS011;58320;48.804;9.252;2022-07-23T14:54:30;6.85;;;6.10;;
70733;SDS011;58320;48.804;9.252;2022-07-23T14:56:57;7.25;;;6.15;;
70733;SDS011;58320;48.804;9.252;2022-07-23T14:59:24;7.35;;;6.30;;
70733;SDS011;58320;48.804;9.252;2022-07-23T15:01:50;7.43;;;5.65;;
70733;SDS011;58320;48.804;9.252;2022-07-23T15:04:17;7.10;;;6.32;;
70733;SDS011;58320;48.804;9.252;2022-07-23T15:06:43;6.60;;;5.73;;
70733;SDS011;58320;48.804;9.252;2022-07-23T15:09:10;8.00;;;6.43;;
70733;SDS011;58320;48.804;9.252;2022-07-23T15:11:36;8.68;;;6.65;;
70733;SDS011;58320;48.804;9.252;2022-07-23T15:14:05;8.77;;;6.22;;
70733;SDS011;58320;48.804;9.252;2022-07-23T15:16:32;7.72;;;6.50;;
70733;SDS011;58320;48.804;9.252;2022-07-23T15:18:59;8.15;;;6.05;;
70733;SDS011;58320;48.804;9.252;2022-07-23T15:21:26;7.00;;;5.97;;
70733;SDS011;58320;48.804;9.252;2022-07-23T15:23:54;9.57;;;5.82;;
70733;SDS011;58320;48.804;9.252;2022-07-23T15:26:24;7.15;;;5.70;;
70733;SDS011;58320;48.804;9.252;2022-07-23T15:28:51;6.25;;;5.30;;
70733;SDS011;58320;48.804;9.252;2022-07-23T15:31:17;6.90;;;5.90;;
70733;SDS011;58320;48.804;9.252;2022-07-23T15:33:43;7.95;;;6.15;;
70733;SDS011;58320;48.804;9.252;2022-07-23T15:36:09;7.65;;;5.82;;
70733;SDS011;58320;48.804;9.252;2022-07-23T15:38:35;8.73;;;6.83;;
70733;SDS011;58320;48.804;9.252;2022-07-23T15:41:01;7.03;;;6.22;;
70733;SDS011;58320;48.804;9.252;2022-07-23T15:43:27;6.97;;;5.88;;
70733;SDS011;58320;48.804;9.252;2022-07-23T15:45:53;7.07;;;6.10;;